createdAt,value
2022-10-15T00:00:56.048Z,100145.28
2022-10-15T00:03:23.705Z,100144.69
2022-10-15T00:05:51.365Z,100150.31
2022-10-15T00:08:19.068Z,100138.09
2022-10-15T00:10:46.752Z,100133.69
2022-10-15T00:13:15.813Z,100139.25
2022-10-15T00:15:43.533Z,100132.09
2022-10-15T00:18:11.374Z,100136.84
2022-10-15T00:20:42.357Z,100129.94
2022-10-15T00:23:10.029Z,100122.84
2022-10-15T00:25:38.008Z,100123.81
2022-10-15T00:28:05.956Z,100122.91
2022-10-15T00:30:35.020Z,100131.50
2022-10-15T00:33:02.720Z,100133.41
2022-10-15T00:35:30.432Z,100134.38
2022-10-15T00:37:58.120Z,100130.69
2022-10-15T00:40:25.788Z,100131.66
2022-10-15T00:42:53.469Z,100133.56
2022-10-15T00:45:21.263Z,100138.47
2022-10-15T00:47:50.649Z,100126.03
2022-10-15T00:50:19.919Z,100132.53
2022-10-15T00:52:57.522Z,100136.34
2022-10-15T00:55:28.740Z,100127.91
2022-10-15T00:57:57.411Z,100122.13
2022-10-15T01:00:25.076Z,100133.69
2022-10-15T01:02:54.093Z,100127.09
2022-10-15T01:05:22.335Z,100122.56
2022-10-15T01:07:50.006Z,100127.56
2022-10-15T01:10:18.092Z,100127.34
2022-10-15T01:12:54.349Z,100126.22
2022-10-15T01:15:27.264Z,100128.72
2022-10-15T01:17:58.625Z,100118.53
2022-10-15T01:21:02.967Z,100120.06
2022-10-15T01:23:55.960Z,100113.97
2022-10-15T01:26:50.579Z,100116.47
2022-10-15T01:29:30.355Z,100112.00
2022-10-15T01:32:03.981Z,100120.81
2022-10-15T01:34:37.614Z,100112.47
2022-10-15T01:37:09.644Z,100113.97
2022-10-15T01:39:41.755Z,100110.97
2022-10-15T01:42:15.372Z,100106.13
2022-10-15T01:44:44.436Z,100101.59
2022-10-15T01:47:19.280Z,100115.97
2022-10-15T01:49:47.756Z,100108.94
2022-10-15T01:52:18.102Z,100111.72
2022-10-15T01:54:47.225Z,100117.22
2022-10-15T01:57:15.900Z,100110.41
2022-10-15T01:59:43.942Z,100123.06
2022-10-15T02:02:11.734Z,100115.53
2022-10-15T02:04:41.160Z,100109.69
2022-10-15T02:07:12.349Z,100117.72
2022-10-15T02:09:44.616Z,100117.88
2022-10-15T02:12:21.339Z,100116.78
2022-10-15T02:14:54.607Z,100104.97
2022-10-15T02:17:25.576Z,100107.53
2022-10-15T02:22:31.757Z,100111.22
2022-10-15T02:25:03.187Z,100111.50
2022-10-15T02:27:32.400Z,100112.06
2022-10-15T02:30:03.140Z,100115.34
2022-10-15T02:32:31.881Z,100102.19
2022-10-15T02:35:03.077Z,100109.94
2022-10-15T02:37:31.554Z,100099.47
2022-10-15T02:39:59.653Z,100105.19
2022-10-15T02:42:27.725Z,100099.97
2022-10-15T02:44:55.418Z,100103.09
2022-10-15T02:47:23.138Z,100094.63
2022-10-15T02:49:50.829Z,100103.06
2022-10-15T02:52:19.853Z,100104.59
2022-10-15T02:54:47.550Z,100107.97
2022-10-15T02:57:15.244Z,100105.31
2022-10-15T02:59:43.032Z,100099.63
2022-10-15T03:02:14.068Z,100107.53
2022-10-15T03:04:44.561Z,100100.63
2022-10-15T03:07:12.315Z,100095.00
2022-10-15T03:09:41.348Z,100094.63
2022-10-15T03:12:09.235Z,100102.13
2022-10-15T03:14:36.942Z,100103.13
2022-10-15T03:17:04.652Z,100104.31
2022-10-15T03:19:32.326Z,100106.50
2022-10-15T03:22:00.045Z,100107.44
2022-10-15T03:24:27.953Z,100104.09
2022-10-15T03:26:56.959Z,100107.53
2022-10-15T03:29:24.604Z,100099.16
2022-10-15T03:31:52.557Z,100110.25
2022-10-15T03:34:20.269Z,100107.28
2022-10-15T03:36:47.956Z,100107.91
2022-10-15T03:39:15.812Z,100118.81
2022-10-15T03:44:13.571Z,100112.34
2022-10-15T03:46:41.272Z,100113.97
2022-10-15T03:49:08.970Z,100112.63
2022-10-15T03:51:36.920Z,100108.59
2022-10-15T03:54:04.994Z,100115.19
2022-10-15T03:56:32.689Z,100105.00
2022-10-15T03:59:00.481Z,100109.22
2022-10-15T04:01:33.047Z,100107.19
2022-10-15T04:04:00.808Z,100109.03
2022-10-15T04:06:29.577Z,100100.97
2022-10-15T04:08:57.261Z,100102.88
2022-10-15T04:11:24.923Z,100106.31
2022-10-15T04:13:52.837Z,100119.06
2022-10-15T04:16:22.241Z,100113.38
2022-10-15T04:18:51.282Z,100119.66
2022-10-15T04:21:19.012Z,100119.59
2022-10-15T04:23:46.699Z,100121.31
2022-10-15T04:26:14.410Z,100124.56
2022-10-15T04:28:42.167Z,100129.50
2022-10-15T04:31:10.121Z,100127.28
2022-10-15T04:33:37.796Z,100127.28
2022-10-15T04:36:08.939Z,100123.81
2022-10-15T04:38:36.641Z,100132.69
2022-10-15T04:41:06.571Z,100134.91
2022-10-15T04:43:34.859Z,100128.13
2022-10-15T04:46:07.473Z,100131.06
2022-10-15T04:48:38.969Z,100127.34
2022-10-15T04:51:13.883Z,100134.88
2022-10-15T04:53:41.552Z,100137.63
2022-10-15T04:56:11.987Z,100132.75
2022-10-15T04:58:39.653Z,100142.44
2022-10-15T05:01:09.388Z,100142.56
2022-10-15T05:03:39.714Z,100144.53
2022-10-15T05:06:13.284Z,100142.09
2022-10-15T05:08:43.295Z,100141.47
2022-10-15T05:11:12.764Z,100143.69
2022-10-15T05:13:40.435Z,100146.88
2022-10-15T05:16:13.520Z,100140.16
2022-10-15T05:18:41.621Z,100147.44
2022-10-15T05:21:11.209Z,100144.28
2022-10-15T05:23:39.422Z,100140.31
2022-10-15T05:26:11.737Z,100143.13
2022-10-15T05:28:39.986Z,100152.38
2022-10-15T05:31:08.740Z,100154.31
2022-10-15T05:33:36.503Z,100164.03
2022-10-15T05:36:12.865Z,100155.56
2022-10-15T05:38:41.487Z,100162.09
2022-10-15T05:41:09.166Z,100164.31
2022-10-15T05:43:40.356Z,100168.06
2022-10-15T05:46:09.472Z,100167.53
2022-10-15T05:48:37.136Z,100173.00
2022-10-15T05:51:06.288Z,100176.25
2022-10-15T05:53:36.425Z,100169.72
2022-10-15T05:56:05.091Z,100170.22
2022-10-15T05:58:37.173Z,100171.66
2022-10-15T06:01:07.213Z,100172.72
2022-10-15T06:03:35.177Z,100167.22
2022-10-15T06:06:05.859Z,100171.94
2022-10-15T06:08:34.940Z,100168.06
2022-10-15T06:11:09.330Z,100177.56
2022-10-15T06:13:38.940Z,100173.59
2022-10-15T06:16:07.184Z,100174.91
2022-10-15T06:18:34.888Z,100180.00
2022-10-15T06:21:06.394Z,100176.53
2022-10-15T06:23:35.542Z,100171.72
2022-10-15T06:26:04.560Z,100181.72
2022-10-15T06:28:32.630Z,100189.72
2022-10-15T06:31:00.728Z,100187.59
2022-10-15T06:33:30.256Z,100194.38
2022-10-15T06:36:01.828Z,100187.13
2022-10-15T06:38:30.005Z,100193.56
2022-10-15T06:40:59.049Z,100194.41
2022-10-15T06:43:28.816Z,100192.72
2022-10-15T06:46:00.735Z,100193.06
2022-10-15T06:48:28.590Z,100191.47
2022-10-15T06:50:58.140Z,100201.94
2022-10-15T06:53:25.839Z,100206.03
2022-10-15T06:55:58.992Z,100197.06
2022-10-15T06:58:26.865Z,100202.97
2022-10-15T07:00:54.765Z,100202.44
2022-10-15T07:03:22.464Z,100208.16
2022-10-15T07:05:50.142Z,100209.53
2022-10-15T07:08:19.333Z,100212.34
2022-10-15T07:10:47.556Z,100214.88
2022-10-15T07:13:16.595Z,100222.19
2022-10-15T07:15:46.172Z,100218.38
2022-10-15T07:18:13.887Z,100225.16
2022-10-15T07:20:41.749Z,100227.06
2022-10-15T07:23:09.748Z,100227.88
2022-10-15T07:25:38.714Z,100229.97
2022-10-15T07:28:06.682Z,100228.03
2022-10-15T07:30:35.769Z,100232.31
2022-10-15T07:33:06.283Z,100225.16
2022-10-15T07:35:34.020Z,100232.63
2022-10-15T07:38:04.347Z,100236.75
2022-10-15T07:40:32.089Z,100230.50
2022-10-15T07:43:00.290Z,100229.19
2022-10-15T07:45:30.043Z,100225.41
2022-10-15T07:47:59.014Z,100226.94
2022-10-15T07:50:29.239Z,100231.94
2022-10-15T07:53:00.063Z,100231.88
2022-10-15T07:55:29.732Z,100233.91
2022-10-15T07:57:57.964Z,100229.66
2022-10-15T08:00:25.788Z,100236.16
2022-10-15T08:02:53.488Z,100233.63
2022-10-15T08:05:22.561Z,100240.94
2022-10-15T08:07:50.445Z,100243.88
2022-10-15T08:10:18.693Z,100247.09
2022-10-15T08:12:47.522Z,100242.41
2022-10-15T08:15:15.367Z,100251.53
2022-10-15T08:17:43.057Z,100244.56
2022-10-15T08:20:11.565Z,100250.44
2022-10-15T08:22:40.630Z,100246.19
2022-10-15T08:25:09.177Z,100238.53
2022-10-15T08:27:37.594Z,100234.16
2022-10-15T08:30:05.974Z,100239.06
2022-10-15T08:32:33.696Z,100244.56
2022-10-15T08:35:01.409Z,100239.97
2022-10-15T08:37:29.841Z,100238.25
2022-10-15T08:39:58.880Z,100237.56
2022-10-15T08:42:31.648Z,100234.06
2022-10-15T08:45:01.041Z,100235.38
2022-10-15T08:47:32.342Z,100231.09
2022-10-15T08:50:01.298Z,100244.47
2022-10-15T08:52:39.570Z,100242.25
2022-10-15T08:55:11.243Z,100235.50
2022-10-15T08:57:44.929Z,100242.06
2022-10-15T09:00:15.678Z,100243.44
2022-10-15T09:02:47.874Z,100237.53
2022-10-15T09:05:26.274Z,100235.78
2022-10-15T09:07:56.721Z,100235.66
2022-10-15T09:10:35.298Z,100239.91
2022-10-15T09:13:06.717Z,100240.81
2022-10-15T09:15:37.976Z,100244.66
2022-10-15T09:18:05.997Z,100246.66
2022-10-15T09:20:35.910Z,100249.75
2022-10-15T09:23:04.994Z,100241.72
2022-10-15T09:25:36.705Z,100241.84
2022-10-15T09:28:10.660Z,100239.47
2022-10-15T09:30:41.978Z,100241.91
2022-10-15T09:33:14.581Z,100242.91
2022-10-15T09:35:44.995Z,100233.75
2022-10-15T09:38:26.665Z,100246.16
2022-10-15T09:41:06.663Z,100240.56
2022-10-15T09:43:40.730Z,100239.03
2022-10-15T09:46:12.157Z,100239.69
2022-10-15T09:48:44.101Z,100240.50
2022-10-15T09:51:19.701Z,100239.16
2022-10-15T09:53:51.241Z,100243.28
2022-10-15T09:56:21.529Z,100244.28
2022-10-15T09:58:52.446Z,100241.69
2022-10-15T10:01:21.292Z,100237.06
2022-10-15T10:03:53.932Z,100245.00
2022-10-15T10:06:22.635Z,100238.59
2022-10-15T10:08:53.354Z,100249.16
2022-10-15T10:11:23.885Z,100251.00
2022-10-15T10:13:53.450Z,100244.94
2022-10-15T10:16:22.018Z,100243.84
2022-10-15T10:19:05.153Z,100239.81
2022-10-15T10:21:34.593Z,100242.53
2022-10-15T10:24:21.249Z,100238.03
2022-10-15T10:26:50.485Z,100238.13
2022-10-15T10:29:33.077Z,100243.97
2022-10-15T10:32:10.968Z,100237.84
2022-10-15T10:34:38.704Z,100238.19
2022-10-15T10:37:07.547Z,100230.75
2022-10-15T10:39:36.365Z,100240.09
2022-10-15T10:42:07.814Z,100238.59
2022-10-15T10:44:37.408Z,100228.84
2022-10-15T10:47:12.251Z,100233.00
2022-10-15T10:49:41.726Z,100233.56
2022-10-15T10:52:24.262Z,100231.28
2022-10-15T10:54:57.985Z,100224.72
2022-10-15T10:57:34.329Z,100224.94
2022-10-15T11:00:04.204Z,100217.69
2022-10-15T11:02:33.293Z,100211.44
2022-10-15T11:05:03.046Z,100223.31
2022-10-15T11:07:34.798Z,100219.28
2022-10-15T11:10:10.763Z,100219.97
2022-10-15T11:12:54.145Z,100218.47
2022-10-15T11:15:32.132Z,100219.50
2022-10-15T11:18:15.958Z,100224.00
2022-10-15T11:20:58.659Z,100218.38
2022-10-15T11:23:38.865Z,100212.06
2022-10-15T11:26:16.881Z,100205.91
2022-10-15T11:28:52.515Z,100200.75
2022-10-15T11:31:27.328Z,100204.69
2022-10-15T11:34:06.420Z,100205.91
2022-10-15T11:36:44.468Z,100205.59
2022-10-15T11:39:23.750Z,100201.47
2022-10-15T11:41:57.146Z,100202.88
2022-10-15T11:44:35.169Z,100198.66
2022-10-15T11:47:11.737Z,100202.97
2022-10-15T11:49:45.046Z,100188.56
2022-10-15T11:52:31.577Z,100195.03
2022-10-15T11:55:03.826Z,100192.28
2022-10-15T11:57:33.984Z,100193.91
2022-10-15T12:00:07.885Z,100187.97
2022-10-15T12:02:37.737Z,100195.75
2022-10-15T12:05:07.643Z,100183.03
2022-10-15T12:07:39.432Z,100180.50
2022-10-15T12:10:18.505Z,100185.34
2022-10-15T12:12:54.183Z,100178.91
2022-10-15T12:15:29.090Z,100174.09
2022-10-15T12:18:03.498Z,100167.53
2022-10-15T12:20:31.702Z,100160.47
2022-10-15T12:23:00.917Z,100159.97
2022-10-15T12:25:45.665Z,100165.41
2022-10-15T12:28:19.216Z,100170.22
2022-10-15T12:31:04.405Z,100156.56
2022-10-15T12:33:37.867Z,100148.00
2022-10-15T12:36:09.753Z,100150.78
2022-10-15T12:38:39.397Z,100148.59
2022-10-15T12:41:09.731Z,100154.13
2022-10-15T12:43:40.760Z,100152.53
2022-10-15T12:46:11.348Z,100153.94
2022-10-15T12:48:41.501Z,100154.84
2022-10-15T12:51:39.787Z,100156.00
2022-10-15T12:54:38.716Z,100144.88
2022-10-15T12:57:43.719Z,100142.25
2022-10-15T13:00:33.785Z,100151.63
2022-10-15T13:03:15.188Z,100151.63
2022-10-15T13:05:43.208Z,100142.56
2022-10-15T13:08:15.945Z,100145.47
2022-10-15T13:10:49.748Z,100151.63
2022-10-15T13:13:19.300Z,100154.34
2022-10-15T13:15:54.619Z,100165.84
2022-10-15T13:18:26.414Z,100148.50
2022-10-15T13:20:56.282Z,100153.56
2022-10-15T13:23:31.691Z,100147.78
2022-10-15T13:26:14.311Z,100150.91
2022-10-15T13:28:43.423Z,100143.66
2022-10-15T13:31:16.534Z,100145.97
2022-10-15T13:33:47.430Z,100142.47
2022-10-15T13:36:21.541Z,100135.91
2022-10-15T13:38:54.816Z,100135.50
2022-10-15T13:41:32.057Z,100138.13
2022-10-15T13:44:01.004Z,100144.75
2022-10-15T13:46:31.764Z,100132.56
2022-10-15T13:49:03.262Z,100137.00
2022-10-15T13:51:35.733Z,100126.75
2022-10-15T13:54:31.795Z,100118.78
2022-10-15T13:57:07.130Z,100117.38
2022-10-15T13:59:34.923Z,100113.75
2022-10-15T14:02:04.263Z,100093.78
2022-10-15T14:04:33.660Z,100100.34
2022-10-15T14:07:03.640Z,100097.00
2022-10-15T14:09:33.856Z,100096.56
2022-10-15T14:12:03.597Z,100091.34
2022-10-15T14:14:34.608Z,100089.16
2022-10-15T14:17:04.849Z,100104.38
2022-10-15T14:19:34.947Z,100106.38
2022-10-15T14:22:02.734Z,100100.31
2022-10-15T14:24:33.257Z,100099.59
2022-10-15T14:27:09.529Z,100104.19
2022-10-15T14:29:40.228Z,100098.53
2022-10-15T14:32:26.657Z,100090.13
2022-10-15T14:34:56.841Z,100091.13
2022-10-15T14:37:41.865Z,100086.84
2022-10-15T14:40:18.658Z,100092.97
2022-10-15T14:42:48.689Z,100092.47
2022-10-15T14:45:22.508Z,100082.84
2022-10-15T14:47:51.611Z,100091.38
2022-10-15T14:50:21.417Z,100090.59
2022-10-15T14:52:51.637Z,100095.38
2022-10-15T14:55:28.956Z,100103.72
2022-10-15T14:57:57.040Z,100109.81
2022-10-15T15:00:28.400Z,100100.75
2022-10-15T15:02:57.824Z,100096.09
2022-10-15T15:05:28.846Z,100090.34
2022-10-15T15:08:03.078Z,100084.41
2022-10-15T15:10:34.633Z,100080.47
2022-10-15T15:13:04.384Z,100078.81
2022-10-15T15:15:32.465Z,100078.88
2022-10-15T15:18:00.332Z,100070.66
2022-10-15T15:20:29.451Z,100076.88
2022-10-15T15:22:57.235Z,100063.78
2022-10-15T15:25:29.565Z,100072.06
2022-10-15T15:27:57.796Z,100065.63
2022-10-15T15:30:27.443Z,100059.06
2022-10-15T15:32:55.331Z,100055.88
2022-10-15T15:35:25.855Z,100069.94
2022-10-15T15:37:54.943Z,100067.13
2022-10-15T15:40:22.997Z,100081.22
2022-10-15T15:42:50.841Z,100083.16
2022-10-15T15:45:20.841Z,100080.44
2022-10-15T15:47:48.637Z,100081.81
2022-10-15T15:50:16.827Z,100091.69
2022-10-15T15:52:44.558Z,100090.09
2022-10-15T15:55:14.344Z,100086.25
2022-10-15T15:57:42.134Z,100086.25
2022-10-15T16:00:11.428Z,100079.59
2022-10-15T16:02:39.605Z,100082.22
2022-10-15T16:05:09.194Z,100076.00
2022-10-15T16:07:36.850Z,100075.50
2022-10-15T16:10:06.245Z,100073.28
2022-10-15T16:12:35.392Z,100070.88
2022-10-15T16:15:03.057Z,100071.75
2022-10-15T16:17:30.752Z,100075.50
2022-10-15T16:19:58.427Z,100074.38
2022-10-15T16:22:26.088Z,100077.84
2022-10-15T16:24:55.044Z,100073.28
2022-10-15T16:27:23.470Z,100070.56
2022-10-15T16:29:52.919Z,100072.16
2022-10-15T16:32:20.590Z,100069.97
2022-10-15T16:34:48.267Z,100073.47
2022-10-15T16:37:15.941Z,100072.00
2022-10-15T16:39:43.755Z,100078.50
2022-10-15T16:42:13.547Z,100072.16
2022-10-15T16:44:41.272Z,100084.47
2022-10-15T16:47:10.285Z,100084.56
2022-10-15T16:49:37.940Z,100080.06
2022-10-15T16:52:05.947Z,100078.75
2022-10-15T16:54:33.621Z,100079.63
2022-10-15T16:57:03.036Z,100084.47
2022-10-15T16:59:30.708Z,100080.75
2022-10-15T17:01:58.616Z,100090.50
2022-10-15T17:04:27.773Z,100101.84
2022-10-15T17:06:55.420Z,100095.22
2022-10-15T17:09:23.593Z,100096.81
2022-10-15T17:11:51.434Z,100099.53
2022-10-15T17:14:19.432Z,100110.22
2022-10-15T17:16:49.088Z,100117.06
2022-10-15T17:19:18.428Z,100122.16
2022-10-15T17:21:47.445Z,100124.28
2022-10-15T17:24:16.365Z,100125.59
2022-10-15T17:26:45.284Z,100127.50
2022-10-15T17:29:16.176Z,100128.31
2022-10-15T17:31:44.035Z,100138.88
2022-10-15T17:34:12.656Z,100141.16
2022-10-15T17:36:44.914Z,100140.19
2022-10-15T17:39:15.699Z,100139.38
2022-10-15T17:41:43.472Z,100147.44
2022-10-15T17:44:11.669Z,100148.25
2022-10-15T17:46:40.136Z,100147.53
2022-10-15T17:49:09.465Z,100144.81
2022-10-15T17:51:37.532Z,100151.66
2022-10-15T17:54:05.233Z,100144.94
2022-10-15T17:56:35.520Z,100139.88
2022-10-15T17:59:05.821Z,100147.31
2022-10-15T18:04:23.500Z,100150.03
2022-10-15T18:06:51.162Z,100138.38
2022-10-15T18:09:18.845Z,100144.81
2022-10-15T18:11:48.937Z,100148.16
2022-10-15T18:14:16.654Z,100148.44
2022-10-15T18:16:44.389Z,100154.50
2022-10-15T18:19:12.139Z,100157.91
2022-10-15T18:21:40.031Z,100154.97
2022-10-15T18:24:07.732Z,100152.94
2022-10-15T18:26:35.415Z,100153.72
2022-10-15T18:29:04.507Z,100155.66
2022-10-15T18:31:32.225Z,100161.69
2022-10-15T18:33:59.897Z,100175.47
2022-10-15T18:36:31.298Z,100174.47
2022-10-15T18:38:59.687Z,100178.09
2022-10-15T18:41:28.789Z,100178.88
2022-10-15T18:43:57.744Z,100170.72
2022-10-15T18:46:27.680Z,100171.19
2022-10-15T18:48:55.904Z,100175.59
2022-10-15T18:51:25.155Z,100165.25
2022-10-15T18:53:53.190Z,100158.50
2022-10-15T18:56:21.292Z,100163.25
2022-10-15T18:58:49.894Z,100183.53
2022-10-15T19:01:27.397Z,100194.72
2022-10-15T19:03:55.237Z,100197.84
2022-10-15T19:06:24.223Z,100199.28
2022-10-15T19:08:52.334Z,100201.78
2022-10-15T19:11:20.437Z,100198.97
2022-10-15T19:13:48.856Z,100200.25
2022-10-15T19:16:16.547Z,100207.31
2022-10-15T19:18:45.594Z,100194.19
2022-10-15T19:21:13.273Z,100202.41
2022-10-15T19:23:41.040Z,100212.41
2022-10-15T19:26:09.694Z,100210.84
2022-10-15T19:28:38.078Z,100213.19
2022-10-15T19:31:08.778Z,100226.31
2022-10-15T19:33:36.715Z,100216.38
2022-10-15T19:36:06.537Z,100220.81
2022-10-15T19:38:34.697Z,100213.72
2022-10-15T19:41:05.073Z,100209.53
2022-10-15T19:43:32.732Z,100208.41
2022-10-15T19:46:05.110Z,100213.66
2022-10-15T19:48:32.900Z,100219.84
2022-10-15T19:51:05.008Z,100210.81
2022-10-15T19:53:34.197Z,100210.56
2022-10-15T19:56:05.048Z,100212.75
2022-10-15T19:58:33.800Z,100226.50
2022-10-15T20:03:54.144Z,100224.72
2022-10-15T20:06:22.192Z,100226.41
2022-10-15T20:08:51.428Z,100229.38
2022-10-15T20:11:19.695Z,100234.34
2022-10-15T20:13:47.388Z,100233.41
2022-10-15T20:16:16.656Z,100252.72
2022-10-15T20:18:49.291Z,100264.69
2022-10-15T20:21:17.573Z,100260.13
2022-10-15T20:23:46.687Z,100268.72
2022-10-15T20:26:16.898Z,100273.03
2022-10-15T20:28:46.071Z,100262.25
2022-10-15T20:31:16.651Z,100276.25
2022-10-15T20:33:45.155Z,100275.94
2022-10-15T20:36:15.866Z,100276.63
2022-10-15T20:38:45.602Z,100271.47
2022-10-15T20:41:16.124Z,100282.59
2022-10-15T20:43:45.017Z,100283.47
2022-10-15T20:46:14.491Z,100279.03
2022-10-15T20:48:42.482Z,100264.81
2022-10-15T20:51:10.577Z,100283.63
2022-10-15T20:53:38.776Z,100283.09
2022-10-15T20:56:07.512Z,100288.97
2022-10-15T20:58:36.538Z,100296.47
2022-10-15T21:01:07.557Z,100318.84
2022-10-15T21:03:35.260Z,100307.59
2022-10-15T21:06:05.172Z,100315.69
2022-10-15T21:08:32.981Z,100325.38
2022-10-15T21:11:04.082Z,100326.25
2022-10-15T21:13:31.940Z,100330.59
2022-10-15T21:16:03.427Z,100339.56
2022-10-15T21:18:32.250Z,100342.38
2022-10-15T21:21:03.509Z,100361.94
2022-10-15T21:23:31.434Z,100358.22
2022-10-15T21:26:04.954Z,100365.56
2022-10-15T21:28:33.053Z,100361.38
2022-10-15T21:31:05.097Z,100365.06
2022-10-15T21:33:33.210Z,100355.13
2022-10-15T21:36:10.556Z,100372.69
2022-10-15T21:38:38.263Z,100371.16
2022-10-15T21:41:06.180Z,100373.78
2022-10-15T21:43:37.199Z,100379.72
2022-10-15T21:46:07.581Z,100384.28
2022-10-15T21:48:36.465Z,100381.72
2022-10-15T21:51:05.825Z,100388.56
2022-10-15T21:53:34.162Z,100396.72
2022-10-15T21:56:06.217Z,100398.44
2022-10-15T21:58:33.897Z,100395.16
2022-10-15T22:01:11.770Z,100398.03
2022-10-15T22:03:41.485Z,100403.31
2022-10-15T22:06:12.318Z,100402.72
2022-10-15T22:08:40.314Z,100404.44
2022-10-15T22:11:10.026Z,100408.63
2022-10-15T22:13:38.948Z,100409.22
2022-10-15T22:16:09.907Z,100402.94
2022-10-15T22:18:37.833Z,100407.59
2022-10-15T22:21:15.325Z,100407.31
2022-10-15T22:23:44.356Z,100410.53
2022-10-15T22:26:12.049Z,100413.25
2022-10-15T22:28:40.104Z,100423.53
2022-10-15T22:31:11.557Z,100432.41
2022-10-15T22:33:40.521Z,100434.38
2022-10-15T22:36:14.345Z,100439.09
2022-10-15T22:38:42.118Z,100437.59
2022-10-15T22:41:10.609Z,100437.19
2022-10-15T22:43:38.475Z,100439.22
2022-10-15T22:46:07.089Z,100442.94
2022-10-15T22:48:36.606Z,100442.22
2022-10-15T22:51:06.553Z,100448.97
2022-10-15T22:53:34.645Z,100440.81
2022-10-15T22:56:03.380Z,100443.94
2022-10-15T22:58:32.381Z,100449.97
2022-10-15T23:01:07.814Z,100449.19
2022-10-15T23:03:37.090Z,100449.59
2022-10-15T23:06:05.053Z,100439.69
2022-10-15T23:08:33.283Z,100431.88
2022-10-15T23:11:09.288Z,100438.34
2022-10-15T23:13:38.285Z,100442.47
2022-10-15T23:16:07.622Z,100448.75
2022-10-15T23:18:36.661Z,100461.75
2022-10-15T23:21:06.492Z,100462.50
2022-10-15T23:23:34.209Z,100463.53
2022-10-15T23:26:01.907Z,100456.56
2022-10-15T23:28:29.743Z,100458.72
2022-10-15T23:30:57.508Z,100464.84
2022-10-15T23:33:25.392Z,100464.84
2022-10-15T23:36:03.588Z,100459.56
2022-10-15T23:38:31.744Z,100455.53
2022-10-15T23:41:02.629Z,100467.94
2022-10-15T23:43:30.900Z,100477.94
2022-10-15T23:45:59.264Z,100463.38
2022-10-15T23:48:27.217Z,100468.75
2022-10-15T23:50:59.401Z,100482.31
2022-10-15T23:53:32.372Z,100487.06
2022-10-15T23:56:03.026Z,100485.00
2022-10-15T23:58:31.938Z,100475.56
